Paulistana II — 00 — position and weather

sailwx.info

Track history (hours):
 
Tides and Currents Weather Stations Pressure Air Temp Water Temp Dewpoint Dewpoint Depression Visibility Wind Speed Wind Dir Waves Ship Positions

Paulistana II

Last reported at 2014-Nov-27 01:33 UTC. Time now 2014-Nov-27 01:44 UTC.
Position N 31°34' E 121°18'.

Length 6 m.

Type: Pollution control. MMSI: 316014038.

Date/timePositionNaut miles runAvg speedWind from/ knotsBaromVisibWave heightAir tempDewpointWater temp
2014-Nov-27 01:33N 31°34' E 121°18'6 6.0
2014-Nov-27 00:33N 31°39' E 121°14'6 5.7
2014-Nov-26 23:33N 31°42' E 121°08'4 4.3
2014-Nov-26 22:32N 31°46' E 121°06'4287.1
2014-Nov-26 22:04N 31°59' E 120°19'3 6.3
2014-Nov-26 21:34N 32°00' E 120°23'6 6.3
2014-Nov-26 20:33N 32°02' E 120°30'6 5.7
2014-Nov-26 19:30N 32°01' E 120°36'475120.1
2014-Nov-26 15:33N 24°25' E 118°04'8 7.5
2014-Nov-26 14:32N 24°21' E 118°11'479120.1
2014-Nov-26 10:33N 32°01' E 120°44'446136.0
2014-Nov-26 07:17N 24°45' E 118°54'4362943.2
2014-Nov-26 07:08N 31°45' E 121°05'431733.5
2014-Nov-26 06:32N 24°50' E 118°58'4288375.9
2014-Nov-26 06:29N 31°42' E 121°10'46489.1
2014-Nov-26 01:17N 38°54' E 117°42'487249.6
2014-Nov-25 23:19N 31°24' E 121°31'3038.6
2014-Nov-25 22:32N 30°57' E 121°13'26667.0
2014-Nov-25 22:30N 31°21' E 121°26'2424.1
2014-Nov-25 21:31N 30°58' E 121°18'5 5.5
2014-Nov-25 20:33N 30°60' E 121°24'21428.5
2014-Nov-25 20:30N 31°21' E 121°26'13 6.2
2014-Nov-25 18:28N 31°08' E 121°28'13 3.1
2014-Nov-25 14:07N 31°21' E 121°30'2 2.0
2014-Nov-25 13:17N 31°23' E 121°30'27 5.1
2014-Nov-25 08:04N 31°42' E 121°08'3 0.3
2014-Nov-24 19:33N 31°45' E 121°07'6 5.7
2014-Nov-24 18:33N 31°41' E 121°11'8 7.2
2014-Nov-24 17:26N 31°35' E 121°18'6 6.7
2014-Nov-24 16:33N 31°31' E 121°23'6 6.2
2014-Nov-24 15:32N 31°27' E 121°29'4 4.0
2014-Nov-24 14:33N 31°23' E 121°31'658661.0
2014-Nov-24 13:33N 23°06' E 113°27'65659032.0
2014-Nov-24 13:32N 31°19' E 121°34'656671.2
2014-Nov-24 12:34N 23°06' E 113°27'0 0.0
2014-Nov-24 11:33N 23°06' E 113°27'0 0.0
2014-Nov-24 10:33N 23°06' E 113°27'0 0.0
2014-Nov-24 09:27N 23°06' E 113°27'1 1.1
2014-Nov-24 08:33N 23°05' E 113°26'6593516.7
2014-Nov-24 08:22N 31°24' E 121°31'659782.1
2014-Nov-24 07:31N 23°05' E 113°26'0 0.0
2014-Nov-24 06:33N 23°05' E 113°26'0 0.0
2014-Nov-24 05:33N 23°05' E 113°26'0 0.0
2014-Nov-24 04:32N 23°05' E 113°26'6632902.6
2014-Nov-24 04:18N 31°59' E 120°48'663889.6
2014-Nov-24 03:34N 23°05' E 113°26'6631637.6
2014-Nov-24 03:09N 31°59' E 120°48'6631073.8
2014-Nov-24 02:32N 23°05' E 113°26'0 0.0
2014-Nov-24 01:33N 23°05' E 113°26'0 0.0
2014-Nov-24 00:33N 23°05' E 113°26'0 0.0
2014-Nov-23 23:33N 23°05' E 113°26'6604156.6
2014-Nov-23 23:24N 31°40' E 121°12'660785.2
2014-Nov-23 22:33N 23°05' E 113°26'6603773.8
2014-Nov-23 22:23N 31°45' E 121°05'660800.5
2014-Nov-23 21:33N 23°05' E 113°26'0 0.0
2014-Nov-23 20:33N 23°05' E 113°26'0 0.0
2014-Nov-23 19:33N 23°05' E 113°26'0 0.0
2014-Nov-23 18:33N 23°05' E 113°26'6634078.0
2014-Nov-23 18:24N 31°59' E 120°48'663759.8
2014-Nov-23 17:31N 23°05' E 113°26'0 0.0
2014-Nov-23 16:33N 23°05' E 113°26'6561312.9
2014-Nov-23 16:03N 31°17' E 121°34'6561325.4
2014-Nov-23 15:33N 23°05' E 113°26'65852602.3
2014-Nov-23 15:33N 31°20' E 121°33'7071.0
2014-Nov-23 14:33N 32°02' E 120°27'666115.0
2014-Nov-23 14:33N 31°24' E 121°31'659666.0
2014-Nov-23 13:33N 23°05' E 113°26'649778386.3
2014-Nov-23 13:33N 31°59' E 120°21'641453.0
2014-Nov-23 13:31N 31°28' E 121°27'6 6.6
2014-Nov-23 12:33N 31°32' E 121°21'65956491.8
2014-Nov-23 12:33N 23°05' E 113°26'6615496.4
2014-Nov-23 12:25N 31°25' E 121°33'1922.1
2014-Nov-23 11:33N 31°37' E 121°15'6601188372.0
2014-Nov-23 11:33N 23°05' E 113°26'660593788.1
2014-Nov-23 11:33N 31°27' E 121°27'562067.2
2014-Nov-23 11:31N 32°00' E 120°34'6 5.9
2014-Nov-23 10:33N 32°02' E 120°27'417291.7
2014-Nov-23 10:33N 31°42' E 121°09'660792032.8
2014-Nov-23 10:33N 23°05' E 113°26'0 0.0
2014-Nov-23 09:33N 23°05' E 113°26'0 0.0
2014-Nov-23 08:33N 23°05' E 113°26'0 0.0
2014-Nov-23 07:33N 23°05' E 113°26'0 0.0
2014-Nov-23 06:33N 23°05' E 113°26'62022560.2
2014-Nov-23 06:31N 29°53' E 122°09'8 8.4
2014-Nov-23 05:32N 29°59' E 122°02'620279039.7
2014-Nov-23 05:32N 23°05' E 113°26'0 0.0
2014-Nov-23 04:33N 23°05' E 113°26'0 0.0
2014-Nov-23 03:34N 23°05' E 113°26'0 0.0
2014-Nov-23 02:33N 23°05' E 113°26'6647660.6
2014-Nov-23 02:28N 32°00' E 120°49'664720.8
2014-Nov-23 01:33N 23°05' E 113°26'0 0.0
2014-Nov-23 00:33N 23°05' E 113°26'6642904.1
2014-Nov-23 00:19N 32°00' E 120°49'664873.3
2014-Nov-22 23:33N 23°05' E 113°26'0 0.0
2014-Nov-22 22:33N 23°05' E 113°26'6641565.2
2014-Nov-22 22:08N 32°00' E 120°49'6641160.8
2014-Nov-22 21:33N 23°05' E 113°26'0 0.0
2014-Nov-22 20:33N 23°05' E 113°26'6446625.8
2014-Nov-22 20:28N 31°57' E 120°16'6 6.7
2014-Nov-22 19:33N 31°60' E 120°22'65036540.8
2014-Nov-22 19:32N 23°05' E 113°26'0 0.0
2014-Nov-22 18:33N 23°05' E 113°26'66182081.3
2014-Nov-22 18:33N 31°09' E 121°52'882543.1
2014-Nov-22 18:30N 32°02' E 120°30'655680.8
2014-Nov-22 17:33N 23°05' E 113°26'6615198.2
2014-Nov-22 17:25N 31°14' E 121°47'661762.3
2014-Nov-22 16:33N 23°05' E 113°26'6613612.7
2014-Nov-22 16:22N 31°14' E 121°47'2 1.9
2014-Nov-22 15:34N 31°15' E 121°46'662297799.8
2014-Nov-22 15:33N 23°05' E 113°26'662662.8
2014-Nov-22 14:33N 31°18' E 121°43'662794489.4
2014-Nov-22 14:33N 23°05' E 113°26'0 0.0
2014-Nov-22 13:33N 23°05' E 113°26'66217784.9
2014-Nov-22 13:31N 31°21' E 121°40'58253.1
2014-Nov-22 13:17N 32°00' E 120°49'5169.4
2014-Nov-22 12:33N 31°24' E 121°32'66044853.0
2014-Nov-22 12:32N 23°05' E 113°26'0 0.0
2014-Nov-22 11:32N 23°05' E 113°26'6601454.0
2014-Nov-22 11:05N 31°33' E 121°20'6601225.1
2014-Nov-22 10:32N 23°05' E 113°26'6601625.2
2014-Nov-22 10:08N 31°39' E 121°13'6601145.3
2014-Nov-22 09:33N 23°05' E 113°26'6648270.3
2014-Nov-22 09:28N 32°00' E 120°49'23395.6
2014-Nov-22 09:25N 31°43' E 121°07'7 8.4
2014-Nov-22 08:33N 31°47' E 120°59'65937634.9
2014-Nov-22 08:32N 23°05' E 113°26'6646035.6
2014-Nov-22 08:26N 32°00' E 120°49'664760.5
2014-Nov-22 07:33N 23°05' E 113°26'6645558.4
2014-Nov-22 07:26N 32°00' E 120°49'664739.7
2014-Nov-22 06:32N 23°05' E 113°26'0 0.0
2014-Nov-22 05:33N 23°05' E 113°26'0 0.0
2014-Nov-22 04:33N 23°05' E 113°26'6581662.2
2014-Nov-22 04:10N 31°60' E 120°39'6581079.1
2014-Nov-22 03:33N 23°05' E 113°26'65826910.1
2014-Nov-22 03:32N 32°03' E 120°34'327751.4
2014-Nov-22 03:31N 32°05' E 119°56'641663.0
2014-Nov-22 02:33N 23°05' E 113°26'65343534.7
2014-Nov-22 02:33N 32°02' E 120°25'22276.4
2014-Nov-22 02:28N 32°01' E 119°58'43127.4
2014-Nov-22 02:07N 32°00' E 120°49'6641171.6
2014-Nov-22 01:33N 23°05' E 113°26'63914105.4
2014-Nov-22 01:31N 31°58' E 120°03'639669.1
2014-Nov-22 00:33N 23°05' E 113°26'66427472.7
2014-Nov-22 00:32N 32°00' E 120°49'35570.1
2014-Nov-22 00:28N 31°57' E 120°08'640700.1
2014-Nov-21 23:33N 23°05' E 113°26'656295041.2
2014-Nov-21 23:33N 31°22' E 121°28'722499.1
2014-Nov-21 23:32N 31°56' E 120°13'642651.5
2014-Nov-21 22:32N 23°05' E 113°26'64772738.2
2014-Nov-21 22:32N 31°58' E 120°18'647663.3
2014-Nov-21 21:33N 23°05' E 113°26'65275694.1
2014-Nov-21 21:33N 32°02' E 120°24'2286.9
2014-Nov-21 21:18N 32°00' E 120°49'1722.7
2014-Nov-21 20:33N 32°05' E 120°30'657788694.7
2014-Nov-21 20:33N 23°05' E 113°26'6643375.9
2014-Nov-21 20:21N 32°00' E 120°49'1113.8
2014-Nov-21 19:33N 32°01' E 120°36'658591835.5
2014-Nov-21 19:33N 23°05' E 113°26'6647563.6
2014-Nov-21 19:28N 32°00' E 120°49'664727.8
2014-Nov-21 18:33N 23°05' E 113°26'0 0.0
2014-Nov-21 17:33N 23°05' E 113°26'6639283.5
2014-Nov-21 17:29N 31°57' E 120°52'663718.2
2014-Nov-21 16:33N 23°05' E 113°26'6585537.0
2014-Nov-21 16:26N 31°49' E 120°55'658733.3
2014-Nov-21 15:32N 23°05' E 113°26'660103276.3
2014-Nov-21 15:32N 31°46' E 121°02'660675.6
2014-Nov-21 14:33N 23°05' E 113°26'66314379.8
2014-Nov-21 14:31N 32°02' E 120°45'29298.1
2014-Nov-21 14:25N 31°42' E 121°09'2695.1
2014-Nov-21 14:09N 31°21' E 121°27'2237.0
2014-Nov-21 13:33N 31°40' E 121°13'66191558.4
2014-Nov-21 13:32N 23°05' E 113°26'66221280.6
2014-Nov-21 13:31N 32°02' E 120°42'57227.0
2014-Nov-21 13:16N 31°23' E 121°30'658930.2
2014-Nov-21 12:33N 23°05' E 113°26'66299260.9
2014-Nov-21 12:33N 32°03' E 120°41'36129543.6
2014-Nov-21 12:33N 31°40' E 121°13'661669.6
2014-Nov-21 11:33N 23°05' E 113°26'66148582.0
2014-Nov-21 11:33N 31°40' E 121°13'0 0.0
2014-Nov-21 10:33N 31°40' E 121°13'661216410.8
2014-Nov-21 10:33N 23°05' E 113°26'661661.6
2014-Nov-21 09:33N 31°40' E 121°13'66128680.9
2014-Nov-21 09:32N 23°05' E 113°26'0 0.0
2014-Nov-21 08:33N 23°05' E 113°26'661340074.1
2014-Nov-21 08:33N 31°40' E 121°13'661665.9
2014-Nov-21 07:34N 23°05' E 113°26'661198258.0
2014-Nov-21 07:33N 31°38' E 121°16'44120.9
2014-Nov-21 07:11N 32°01' E 120°31'0 0.0
2014-Nov-21 06:34N 32°01' E 120°31'655138764.7
2014-Nov-21 06:33N 23°05' E 113°26'660339324.6
2014-Nov-21 06:33N 31°33' E 121°20'19105.5
2014-Nov-21 06:22N 31°47' E 121°06'3239.5
2014-Nov-21 05:33N 32°01' E 120°31'65546254.9
2014-Nov-21 05:33N 23°05' E 113°26'661264258.5
2014-Nov-21 05:32N 31°29' E 121°27'26265.1
2014-Nov-21 05:27N 31°47' E 121°06'3235.8
2014-Nov-21 04:33N 31°23' E 121°31'659395334.3
2014-Nov-21 04:33N 23°05' E 113°26'661113300.8
2014-Nov-21 04:33N 31°43' E 121°08'361557.5
2014-Nov-21 04:32N 32°01' E 120°31'0 0.1
2014-Nov-21 03:33N 32°01' E 120°32'65519178.4
2014-Nov-21 03:31N 23°05' E 113°26'65759147.9
2014-Nov-21 03:31N 31°22' E 121°30'207298.0
2014-Nov-21 03:30N 31°38' E 121°15'38324.5
2014-Nov-21 03:23N 32°06' E 120°46'0 0.0
2014-Nov-21 02:33N 32°06' E 120°46'142891.2
2014-Nov-21 02:33N 32°01' E 120°32'65594361.2
2014-Nov-21 02:33N 23°05' E 113°26'661339701.9
2014-Nov-21 02:32N 31°33' E 121°21'131462.3
2014-Nov-21 02:32N 31°22' E 121°30'657660.9
2014-Nov-21 01:32N 23°05' E 113°26'65784496.4
2014-Nov-21 01:32N 31°22' E 121°30'581380.0
2014-Nov-21 01:29N 32°06' E 120°46'53306.8
2014-Nov-21 01:19N 31°28' E 121°28'661867.6
2014-Nov-21 00:33N 23°05' E 113°26'65931231.3
2014-Nov-21 00:32N 31°24' E 121°31'253.2
2014-Nov-21 00:29N 31°22' E 121°30'5761.3
2014-Nov-20 23:34N 32°05' E 120°45'665133095.8
2014-Nov-20 23:33N 23°05' E 113°26'65720395.8
2014-Nov-20 23:31N 31°22' E 121°30'253.6
2014-Nov-20 23:29N 31°24' E 121°31'72389.1
2014-Nov-20 23:18N 31°57' E 120°16'7297.0
2014-Nov-20 22:34N 31°24' E 121°31'28025.6
2014-Nov-20 22:33N 31°22' E 121°30'65767597.6
2014-Nov-20 22:33N 23°05' E 113°26'657662.0
2014-Nov-20 21:33N 31°22' E 121°30'27796.3
2014-Nov-20 21:33N 31°24' E 121°31'659395611.5
2014-Nov-20 21:33N 23°05' E 113°26'619215632.3
2014-Nov-20 21:09N 49°18' W 122°53'53978990.2
2014-Nov-20 20:33N 31°22' E 121°30'657197174.1
2014-Nov-20 20:33N 23°05' E 113°26'659113025.8
2014-Nov-20 20:33N 31°24' E 121°31'5390352804.7
2014-Nov-20 20:32N 49°18' W 122°58'539111382.4
2014-Nov-20 20:04N 31°40' E 121°12'6601279.0
2014-Nov-20 19:33N 23°05' E 113°26'65957873.5
2014-Nov-20 19:32N 31°24' E 121°31'5390843695.1
2014-Nov-20 19:32N 49°18' W 122°58'53922156998.0
2014-Nov-20 19:31N 31°22' E 121°30'27463.0
2014-Nov-20 19:28N 31°42' E 121°09'2729.3
2014-Nov-20 18:33N 31°22' E 121°30'657788696.3
2014-Nov-20 18:33N 23°05' E 113°26'657338142.0
2014-Nov-20 18:33N 31°19' E 121°34'35408.9
2014-Nov-20 18:28N 31°45' E 121°05'38114.7
2014-Nov-20 18:08N 32°03' E 120°25'5 8.1
2014-Nov-20 17:33N 32°04' E 120°30'6634106.1
2014-Nov-20 17:33N 31°22' E 121°30'0 0.0
2014-Nov-20 16:31N 31°22' E 121°30'571204.8
2014-Nov-20 16:28N 32°00' E 120°40'5761.4
2014-Nov-20 15:33N 31°22' E 121°30'0 0.0
2014-Nov-20 14:33N 31°22' E 121°30'657655.2
2014-Nov-20 13:33N 23°05' E 113°26'65718199.0
2014-Nov-20 13:31N 31°22' E 121°30'0 0.0
2014-Nov-20 12:33N 31°22' E 121°30'65718926.9
2014-Nov-20 12:31N 23°05' E 113°26'0 0.0
2014-Nov-20 11:30N 23°05' E 113°26'65752574.8
2014-Nov-20 11:29N 31°22' E 121°30'657707.1
2014-Nov-20 10:33N 23°05' E 113°26'65727833.7
2014-Nov-20 10:32N 31°22' E 121°30'56209.3
2014-Nov-20 10:16N 32°02' E 120°45'663930.6
2014-Nov-20 09:33N 23°05' E 113°26'65760662.8
2014-Nov-20 09:33N 31°22' E 121°30'56279.0
2014-Nov-20 09:21N 32°02' E 120°45'5670.1
2014-Nov-20 08:33N 31°22' E 121°30'657295731.3
2014-Nov-20 08:33N 23°05' E 113°26'0 0.0
2014-Nov-20 07:33N 23°05' E 113°26'65725717.1
2014-Nov-20 07:31N 31°22' E 121°30'5860.4
2014-Nov-20 06:33N 32°03' E 120°41'662264729.9
2014-Nov-20 06:33N 23°05' E 113°26'65717016.0
2014-Nov-20 06:31N 31°21' E 121°30'65147.6
2014-Nov-20 06:05N 32°01' E 120°31'65124.0
2014-Nov-20 05:33N 31°21' E 121°30'65767577.7
2014-Nov-20 05:33N 23°05' E 113°26'0 0.0
2014-Nov-20 04:32N 23°05' E 113°26'657112629.5
2014-Nov-20 04:32N 31°21' E 121°30'657668.5
2014-Nov-20 03:33N 23°05' E 113°26'65771673.3
2014-Nov-20 03:33N 31°21' E 121°30'657663.1
2014-Nov-20 02:33N 23°05' E 113°26'657107510.8
2014-Nov-20 02:33N 31°21' E 121°30'654886.3
2014-Nov-20 02:32N 32°02' E 120°30'655672.1
2014-Nov-20 01:33N 23°05' E 113°26'65145977.5
2014-Nov-20 01:33N 32°01' E 120°24'697483.0
2014-Nov-20 01:32N 31°21' E 121°30'527.3
2014-Nov-20 01:21N 31°17' E 121°34'656835.1
2014-Nov-20 00:33N 23°05' E 113°26'657337891.0
2014-Nov-20 00:33N 31°21' E 121°30'13510.0
2014-Nov-20 00:33N 31°21' E 121°31'657658.7
2014-Nov-19 23:33N 23°05' E 113°26'65714078.8
2014-Nov-19 23:31N 31°21' E 121°30'4150.5
2014-Nov-19 23:29N 31°25' E 121°30'660710.8
2014-Nov-19 22:33N 23°05' E 113°26'657295654.6
2014-Nov-19 22:33N 31°21' E 121°30'8617.1
2014-Nov-19 22:33N 31°28' E 121°26'660669.7
2014-Nov-19 21:33N 23°05' E 113°26'65753755.4
2014-Nov-19 21:33N 31°21' E 121°30'132264.9
2014-Nov-19 21:32N 31°32' E 121°21'659671.2
2014-Nov-19 20:33N 23°05' E 113°26'66051654.1
2014-Nov-19 20:33N 31°36' E 121°17'192168.5
2014-Nov-19 20:32N 31°21' E 121°30'53202.3
2014-Nov-19 20:16N 32°01' E 120°49'664928.8
2014-Nov-19 19:33N 23°05' E 113°26'664341318.3
2014-Nov-19 19:33N 31°60' E 120°50'522483.6
2014-Nov-19 19:32N 31°21' E 121°30'25790.5
2014-Nov-19 19:30N 31°40' E 121°12'2122.4
2014-Nov-19 18:33N 31°54' E 120°53'4623491.4
2014-Nov-19 18:33N 31°21' E 121°30'294220.0
2014-Nov-19 18:33N 31°43' E 121°07'660475287.5
2014-Nov-19 18:33N 23°05' E 113°26'662669.9
2014-Nov-19 17:33N 31°47' E 121°06'6622384108.6
2014-Nov-19 17:33N 23°05' E 113°26'657295652.6
2014-Nov-19 17:33N 31°21' E 121°30'39360.9
2014-Nov-19 17:27N 31°47' E 120°57'658738.4
2014-Nov-19 16:33N 23°05' E 113°26'662476794.4
2014-Nov-19 16:33N 31°47' E 121°06'334334.3
2014-Nov-19 16:33N 31°22' E 121°30'322027.7
2014-Nov-19 16:32N 31°45' E 121°05'3232.6
2014-Nov-19 15:33N 31°24' E 121°33'661198341.0
2014-Nov-19 15:33N 23°05' E 113°26'66272241.1
2014-Nov-19 15:33N 31°47' E 121°06'9273.9
2014-Nov-19 15:31N 31°40' E 121°13'4644273.5
2014-Nov-19 15:24N 38°55' E 117°57'472557.8
2014-Nov-19 14:33N 31°34' E 121°19'6602376313.7
2014-Nov-19 14:33N 23°05' E 113°26'661125268.8
2014-Nov-19 14:33N 31°24' E 121°33'4842621.2
2014-Nov-19 14:22N 38°55' E 117°57'484599.0
2014-Nov-19 13:33N 31°24' E 121°33'66129750.0
2014-Nov-19 13:32N 23°05' E 113°26'6603720.6
2014-Nov-19 13:21N 31°27' E 121°29'7 8.9
2014-Nov-19 12:33N 31°23' E 121°36'661238129.1
2014-Nov-19 12:33N 23°05' E 113°26'66156666.6
2014-Nov-19 12:32N 31°24' E 121°33'1110.8
2014-Nov-19 11:33N 31°18' E 121°43'66359627.3
2014-Nov-19 11:33N 23°05' E 113°26'661140008.2
2014-Nov-19 11:32N 31°24' E 121°33'0 0.0
2014-Nov-19 10:33N 31°24' E 121°33'187334.2
2014-Nov-19 10:33N 31°12' E 121°50'66285107.5
2014-Nov-19 10:33N 23°05' E 113°26'6641908.1
2014-Nov-19 10:12N 32°01' E 120°47'5483.5
2014-Nov-19 09:33N 31°24' E 121°33'2522412.4
2014-Nov-19 09:33N 31°08' E 121°56'663298199.0
2014-Nov-19 09:33N 23°05' E 113°26'0 0.0
2014-Nov-19 08:34N 23°05' E 113°26'664119449.1
2014-Nov-19 08:33N 32°01' E 120°47'543331.1
2014-Nov-19 08:32N 31°24' E 121°33'315290.9
2014-Nov-19 08:32N 31°05' E 122°01'3131.7
2014-Nov-19 07:33N 31°24' E 121°33'66179335.9
2014-Nov-19 07:33N 23°05' E 113°26'66519946.6
2014-Nov-19 07:31N 31°01' E 122°07'90296.3
2014-Nov-19 07:13N 32°01' E 120°47'5482.0
2014-Nov-19 06:33N 31°24' E 121°33'661594478.2
2014-Nov-19 06:33N 23°06' E 113°26'6822204667.5
2014-Nov-19 06:31N 33°37' W 117°55'608714435.5
2014-Nov-19 06:06N 30°55' E 122°10'6621213.8
2014-Nov-19 05:33N 23°06' E 113°26'660791840.9
2014-Nov-19 05:33N 31°25' E 121°32'462212.5
2014-Nov-19 05:32N 30°51' E 122°09'6090509864.4
2014-Nov-19 05:31N 33°37' W 117°55'614151652.3
2014-Nov-19 05:24N 31°60' E 120°20'5 6.0
2014-Nov-19 04:33N 32°02' E 120°26'653293917.5
2014-Nov-19 04:33N 23°05' E 113°26'66031668.6
2014-Nov-19 04:32N 31°27' E 121°28'42796.8
2014-Nov-19 04:29N 31°57' E 120°52'943118.9
2014-Nov-19 04:27N 30°45' E 122°02'650725.7
2014-Nov-19 03:33N 23°05' E 113°26'64317412.9
2014-Nov-19 03:31N 30°41' E 121°55'55525.3
2014-Nov-19 03:25N 31°29' E 121°24'659768.9
2014-Nov-19 02:33N 23°05' E 113°26'65943938.1
2014-Nov-19 02:32N 31°31' E 121°21'22566.9
2014-Nov-19 02:30N 31°46' E 121°03'1819.4
2014-Nov-19 01:33N 31°34' E 121°19'65974192.6
2014-Nov-19 01:33N 23°05' E 113°26'66342604.8
2014-Nov-19 01:32N 32°01' E 120°46'3196.6
2014-Nov-19 01:12N 31°40' E 121°13'3148.2
2014-Nov-19 00:34N 32°01' E 120°46'361966.3
2014-Nov-19 00:32N 31°37' E 121°16'660237705.0
2014-Nov-19 00:32N 23°05' E 113°26'663676.4
2014-Nov-18 23:33N 32°01' E 120°46'309916.1
2014-Nov-18 23:33N 31°40' E 121°11'660792527.2
2014-Nov-18 23:33N 23°05' E 113°26'0 0.0
2014-Nov-18 22:33N 23°05' E 113°26'6631192891.5
2014-Nov-18 22:33N 32°01' E 120°46'242700.2
2014-Nov-18 22:32N 31°44' E 121°06'111465.3
2014-Nov-18 22:18N 30°02' E 121°57'6 8.0
2014-Nov-18 21:33N 29°57' E 122°00'618222338.5
2014-Nov-18 21:33N 23°05' E 113°26'658592487.4
2014-Nov-18 21:33N 31°47' E 120°59'18527.8
2014-Nov-18 21:31N 32°01' E 120°46'0 0.1
2014-Nov-18 20:33N 32°01' E 120°46'139018.0
2014-Nov-18 20:33N 31°51' E 120°54'659395279.4
2014-Nov-18 20:33N 23°05' E 113°26'62130630.8
2014-Nov-18 20:32N 29°54' E 122°08'10642236.1
2014-Nov-18 20:32N 31°31' E 121°19'3435.3
2014-Nov-18 19:33N 31°57' E 120°52'3574.5
2014-Nov-18 19:33N 31°59' E 120°50'664170676.1
2014-Nov-18 19:33N 23°05' E 113°26'65829257.1
2014-Nov-18 19:32N 31°31' E 121°19'1104418.1
2014-Nov-18 19:30N 29°48' E 122°05'1671426.7
2014-Nov-18 19:23N 31°58' E 120°03'639769.8
2014-Nov-18 18:33N 23°05' E 113°26'658131656.8
2014-Nov-18 18:33N 31°31' E 121°19'407177.2
2014-Nov-18 18:33N 32°00' E 120°47'1511954.4
2014-Nov-18 18:28N 29°43' E 122°02'16532920.0
2014-Nov-18 18:28N 31°57' E 120°10'2729.8
2014-Nov-18 17:33N 32°00' E 120°42'660103274.9
2014-Nov-18 17:33N 23°05' E 113°26'646258265.4
2014-Nov-18 17:33N 31°58' E 120°18'591858.5
2014-Nov-18 17:31N 31°31' E 121°19'4648.3
2014-Nov-18 16:33N 32°00' E 120°37'657157741.0
2014-Nov-18 16:33N 23°05' E 113°26'65831181.7
2014-Nov-18 16:32N 31°31' E 121°19'0 0.1
2014-Nov-18 15:33N 31°31' E 121°19'5030214.9
2014-Nov-18 15:33N 32°03' E 120°33'658473612.2
2014-Nov-18 15:33N 23°05' E 113°26'66111386.2
2014-Nov-18 15:30N 31°45' E 121°06'3840.1
2014-Nov-18 14:33N 32°04' E 120°27'6 5.7
2014-Nov-18 13:33N 31°60' E 120°22'567520.1
2014-Nov-18 13:33N 31°31' E 121°19'37143.3
2014-Nov-18 13:17N 31°59' E 120°50'66428110.7
2014-Nov-18 13:16N 23°05' E 113°26'644910.7
2014-Nov-18 12:33N 31°57' E 120°16'644122031.3
2014-Nov-18 12:33N 23°05' E 113°26'6581681.9
2014-Nov-18 12:10N 31°31' E 121°19'6581092.1
2014-Nov-18 11:34N 23°05' E 113°26'64067767.0
2014-Nov-18 11:33N 31°56' E 120°09'653760.3
2014-Nov-18 11:32N 31°31' E 121°19'2870.8
2014-Nov-18 11:08N 31°50' E 120°55'4678.2
2014-Nov-18 10:33N 31°58' E 120°02'7185622.4
2014-Nov-18 10:33N 31°31' E 121°19'263544.6
2014-Nov-18 10:33N 31°48' E 120°56'65828883.5
2014-Nov-18 10:31N 23°05' E 113°26'6571754.5
2014-Nov-18 10:09N 31°22' E 121°30'6571088.2
2014-Nov-18 09:32N 23°05' E 113°26'63920922.6
2014-Nov-18 09:31N 32°03' E 119°56'875725.3
2014-Nov-18 09:30N 31°21' E 121°26'334285.2
2014-Nov-18 09:29N 31°47' E 121°02'21125.5
2014-Nov-18 09:19N 31°31' E 121°19'38187.4
2014-Nov-18 09:07N 31°59' E 120°49'6621151.6
2014-Nov-18 08:32N 23°06' E 113°27'65726590.6
2014-Nov-18 08:31N 31°31' E 121°19'17676.5
2014-Nov-18 08:29N 31°45' E 121°06'4 4.5
2014-Nov-18 07:33N 31°42' E 121°09'660148393.3
2014-Nov-18 07:33N 23°06' E 113°27'65840131.3
2014-Nov-18 07:32N 31°60' E 120°40'938.0
2014-Nov-18 07:17N 31°59' E 120°51'663895.0
2014-Nov-18 06:33N 23°06' E 113°27'65645448.4
2014-Nov-18 06:32N 32°01' E 120°35'481575.7
2014-Nov-18 06:30N 31°31' E 121°19'4691254.4
2014-Nov-18 06:08N 38°49' E 117°52'469815.8
2014-Nov-18 05:33N 31°31' E 121°19'519650.9
2014-Nov-18 05:33N 32°03' E 120°33'65749267.7
2014-Nov-18 05:32N 23°06' E 113°27'656670.1
2014-Nov-18 04:34N 32°04' E 120°29'656112535.6
2014-Nov-18 04:33N 23°06' E 113°26'65887709.1
2014-Nov-18 04:33N 31°31' E 121°19'658666.1
2014-Nov-18 03:33N 23°06' E 113°27'65852608.4
2014-Nov-18 03:33N 31°31' E 121°19'5510511.4
2014-Nov-18 03:32N 32°03' E 120°26'5555.9
2014-Nov-18 02:33N 31°31' E 121°19'56202777.0
2014-Nov-18 02:33N 32°01' E 120°23'65412789.5
2014-Nov-18 02:30N 22°58' E 113°32'6649447.5
2014-Nov-18 02:26N 31°44' E 121°08'4450.0
2014-Nov-18 01:33N 31°58' E 120°19'5857.6
2014-Nov-18 00:33N 31°31' E 121°19'621489.8
2014-Nov-18 00:31N 31°56' E 120°13'72167.9
2014-Nov-18 00:05N 31°21' E 121°27'1 2.7
2014-Nov-17 23:33N 31°22' E 121°28'12269.9
2014-Nov-17 23:30N 31°31' E 121°19'0 0.0
2014-Nov-17 22:33N 31°31' E 121°19'0 0.0
2014-Nov-17 21:33N 31°31' E 121°19'48011209.9
2014-Nov-17 21:30N 39°01' E 117°56'4909645.9
2014-Nov-17 21:27N 31°24' E 121°31'1314.3
2014-Nov-17 20:33N 31°31' E 121°19'13524.8
2014-Nov-17 20:32N 31°22' E 121°30'4919118.0
2014-Nov-17 20:29N 39°01' E 117°56'480518.1
2014-Nov-17 19:33N 31°31' E 121°19'0 0.0
2014-Nov-17 18:33N 31°31' E 121°19'0 0.0
2014-Nov-17 17:30N 31°31' E 121°19'0 0.0
2014-Nov-17 16:33N 31°31' E 121°19'0 0.0
2014-Nov-17 15:28N 31°31' E 121°19'0 0.0
2014-Nov-17 14:34N 31°31' E 121°19'12116.7
2014-Nov-17 14:27N 31°24' E 121°30'1213.0
2014-Nov-17 13:33N 31°31' E 121°19'0 0.0
2014-Nov-17 12:33N 31°31' E 121°19'0 0.0
2014-Nov-17 11:31N 31°31' E 121°19'5253.3
2014-Nov-17 10:33N 32°02' E 120°30'522298.2
2014-Nov-17 10:32N 31°31' E 121°19'5656.8
2014-Nov-17 09:33N 31°60' E 120°23'5633399.2
2014-Nov-17 09:33N 31°31' E 121°19'131632.4
2014-Nov-17 09:33N 31°41' E 121°10'0 0.0
2014-Nov-17 08:32N 31°41' E 121°10'13380.9
2014-Nov-17 08:30N 31°31' E 121°19'1312.6
2014-Nov-17 07:30N 31°41' E 121°10'2 0.5
2014-Nov-17 04:30N 31°40' E 121°11'11812.1
2014-Nov-17 04:29N 31°31' E 121°18'1516.0
2014-Nov-17 03:34N 31°43' E 121°07'3 3.0
2014-Nov-17 02:32N 31°45' E 121°04'1321036.8
2014-Nov-17 02:24N 29°38' E 121°46'  
Track history (hours):
 
Tides and Currents Weather Stations Pressure Air Temp Water Temp Dewpoint Dewpoint Depression Visibility Wind Speed Wind Dir Waves Ship Positions

Paulistana II

Last reported at 2014-Nov-27 01:33 UTC. Time now 2014-Nov-27 01:44 UTC.
Position N 31°34' E 121°18'.

Length 6 m.

Type: Pollution control. MMSI: 316014038.

Date/timePositionNaut miles runAvg speedWind from/ knotsBaromVisibWave heightAir tempDewpointWater temp
2014-Nov-27 01:33N 31°34' E 121°18'6 6.0
2014-Nov-27 00:33N 31°39' E 121°14'6 5.7
2014-Nov-26 23:33N 31°42' E 121°08'4 4.3
2014-Nov-26 22:32N 31°46' E 121°06'4287.1
2014-Nov-26 22:04N 31°59' E 120°19'3 6.3
2014-Nov-26 21:34N 32°00' E 120°23'6 6.3
2014-Nov-26 20:33N 32°02' E 120°30'6 5.7
2014-Nov-26 19:30N 32°01' E 120°36'475120.1
2014-Nov-26 15:33N 24°25' E 118°04'8 7.5
2014-Nov-26 14:32N 24°21' E 118°11'479120.1
2014-Nov-26 10:33N 32°01' E 120°44'446136.0
2014-Nov-26 07:17N 24°45' E 118°54'4362943.2
2014-Nov-26 07:08N 31°45' E 121°05'431733.5
2014-Nov-26 06:32N 24°50' E 118°58'4288375.9
2014-Nov-26 06:29N 31°42' E 121°10'46489.1
2014-Nov-26 01:17N 38°54' E 117°42'487249.6
2014-Nov-25 23:19N 31°24' E 121°31'3038.6
2014-Nov-25 22:32N 30°57' E 121°13'26667.0
2014-Nov-25 22:30N 31°21' E 121°26'2424.1
2014-Nov-25 21:31N 30°58' E 121°18'5 5.5
2014-Nov-25 20:33N 30°60' E 121°24'21428.5
2014-Nov-25 20:30N 31°21' E 121°26'13 6.2
2014-Nov-25 18:28N 31°08' E 121°28'13 3.1
2014-Nov-25 14:07N 31°21' E 121°30'2 2.0
2014-Nov-25 13:17N 31°23' E 121°30'27 5.1
2014-Nov-25 08:04N 31°42' E 121°08'3 0.3
2014-Nov-24 19:33N 31°45' E 121°07'6 5.7
2014-Nov-24 18:33N 31°41' E 121°11'8 7.2
2014-Nov-24 17:26N 31°35' E 121°18'6 6.7
2014-Nov-24 16:33N 31°31' E 121°23'6 6.2
2014-Nov-24 15:32N 31°27' E 121°29'4 4.0
2014-Nov-24 14:33N 31°23' E 121°31'658661.0
2014-Nov-24 13:33N 23°06' E 113°27'65659032.0
2014-Nov-24 13:32N 31°19' E 121°34'656671.2
2014-Nov-24 12:34N 23°06' E 113°27'0 0.0
2014-Nov-24 11:33N 23°06' E 113°27'0 0.0
2014-Nov-24 10:33N 23°06' E 113°27'0 0.0
2014-Nov-24 09:27N 23°06' E 113°27'1 1.1
2014-Nov-24 08:33N 23°05' E 113°26'6593516.7
2014-Nov-24 08:22N 31°24' E 121°31'659782.1
2014-Nov-24 07:31N 23°05' E 113°26'0 0.0
2014-Nov-24 06:33N 23°05' E 113°26'0 0.0
2014-Nov-24 05:33N 23°05' E 113°26'0 0.0
2014-Nov-24 04:32N 23°05' E 113°26'6632902.6
2014-Nov-24 04:18N 31°59' E 120°48'663889.6
2014-Nov-24 03:34N 23°05' E 113°26'6631637.6
2014-Nov-24 03:09N 31°59' E 120°48'6631073.8
2014-Nov-24 02:32N 23°05' E 113°26'0 0.0
2014-Nov-24 01:33N 23°05' E 113°26'0 0.0
2014-Nov-24 00:33N 23°05' E 113°26'0 0.0
2014-Nov-23 23:33N 23°05' E 113°26'6604156.6
2014-Nov-23 23:24N 31°40' E 121°12'660785.2
2014-Nov-23 22:33N 23°05' E 113°26'6603773.8
2014-Nov-23 22:23N 31°45' E 121°05'660800.5
2014-Nov-23 21:33N 23°05' E 113°26'0 0.0
2014-Nov-23 20:33N 23°05' E 113°26'0 0.0
2014-Nov-23 19:33N 23°05' E 113°26'0 0.0
2014-Nov-23 18:33N 23°05' E 113°26'6634078.0
2014-Nov-23 18:24N 31°59' E 120°48'663759.8
2014-Nov-23 17:31N 23°05' E 113°26'0 0.0
2014-Nov-23 16:33N 23°05' E 113°26'6561312.9
2014-Nov-23 16:03N 31°17' E 121°34'6561325.4
2014-Nov-23 15:33N 23°05' E 113°26'65852602.3
2014-Nov-23 15:33N 31°20' E 121°33'7071.0
2014-Nov-23 14:33N 32°02' E 120°27'666115.0
2014-Nov-23 14:33N 31°24' E 121°31'659666.0
2014-Nov-23 13:33N 23°05' E 113°26'649778386.3
2014-Nov-23 13:33N 31°59' E 120°21'641453.0
2014-Nov-23 13:31N 31°28' E 121°27'6 6.6
2014-Nov-23 12:33N 31°32' E 121°21'65956491.8
2014-Nov-23 12:33N 23°05' E 113°26'6615496.4
2014-Nov-23 12:25N 31°25' E 121°33'1922.1
2014-Nov-23 11:33N 31°37' E 121°15'6601188372.0
2014-Nov-23 11:33N 23°05' E 113°26'660593788.1
2014-Nov-23 11:33N 31°27' E 121°27'562067.2
2014-Nov-23 11:31N 32°00' E 120°34'6 5.9
2014-Nov-23 10:33N 32°02' E 120°27'417291.7
2014-Nov-23 10:33N 31°42' E 121°09'660792032.8
2014-Nov-23 10:33N 23°05' E 113°26'0 0.0
2014-Nov-23 09:33N 23°05' E 113°26'0 0.0
2014-Nov-23 08:33N 23°05' E 113°26'0 0.0
2014-Nov-23 07:33N 23°05' E 113°26'0 0.0
2014-Nov-23 06:33N 23°05' E 113°26'62022560.2
2014-Nov-23 06:31N 29°53' E 122°09'8 8.4
2014-Nov-23 05:32N 29°59' E 122°02'620279039.7
2014-Nov-23 05:32N 23°05' E 113°26'0 0.0
2014-Nov-23 04:33N 23°05' E 113°26'0 0.0
2014-Nov-23 03:34N 23°05' E 113°26'0 0.0
2014-Nov-23 02:33N 23°05' E 113°26'6647660.6
2014-Nov-23 02:28N 32°00' E 120°49'664720.8
2014-Nov-23 01:33N 23°05' E 113°26'0 0.0
2014-Nov-23 00:33N 23°05' E 113°26'6642904.1
2014-Nov-23 00:19N 32°00' E 120°49'664873.3
2014-Nov-22 23:33N 23°05' E 113°26'0 0.0
2014-Nov-22 22:33N 23°05' E 113°26'6641565.2
2014-Nov-22 22:08N 32°00' E 120°49'6641160.8
2014-Nov-22 21:33N 23°05' E 113°26'0 0.0
2014-Nov-22 20:33N 23°05' E 113°26'6446625.8
2014-Nov-22 20:28N 31°57' E 120°16'6 6.7
2014-Nov-22 19:33N 31°60' E 120°22'65036540.8
2014-Nov-22 19:32N 23°05' E 113°26'0 0.0
2014-Nov-22 18:33N 23°05' E 113°26'66182081.3
2014-Nov-22 18:33N 31°09' E 121°52'882543.1
2014-Nov-22 18:30N 32°02' E 120°30'655680.8
2014-Nov-22 17:33N 23°05' E 113°26'6615198.2
2014-Nov-22 17:25N 31°14' E 121°47'661762.3
2014-Nov-22 16:33N 23°05' E 113°26'6613612.7
2014-Nov-22 16:22N 31°14' E 121°47'2 1.9
2014-Nov-22 15:34N 31°15' E 121°46'662297799.8
2014-Nov-22 15:33N 23°05' E 113°26'662662.8
2014-Nov-22 14:33N 31°18' E 121°43'662794489.4
2014-Nov-22 14:33N 23°05' E 113°26'0 0.0
2014-Nov-22 13:33N 23°05' E 113°26'66217784.9
2014-Nov-22 13:31N 31°21' E 121°40'58253.1
2014-Nov-22 13:17N 32°00' E 120°49'5169.4
2014-Nov-22 12:33N 31°24' E 121°32'66044853.0
2014-Nov-22 12:32N 23°05' E 113°26'0 0.0
2014-Nov-22 11:32N 23°05' E 113°26'6601454.0
2014-Nov-22 11:05N 31°33' E 121°20'6601225.1
2014-Nov-22 10:32N 23°05' E 113°26'6601625.2
2014-Nov-22 10:08N 31°39' E 121°13'6601145.3
2014-Nov-22 09:33N 23°05' E 113°26'6648270.3
2014-Nov-22 09:28N 32°00' E 120°49'23395.6
2014-Nov-22 09:25N 31°43' E 121°07'7 8.4
2014-Nov-22 08:33N 31°47' E 120°59'65937634.9
2014-Nov-22 08:32N 23°05' E 113°26'6646035.6
2014-Nov-22 08:26N 32°00' E 120°49'664760.5
2014-Nov-22 07:33N 23°05' E 113°26'6645558.4
2014-Nov-22 07:26N 32°00' E 120°49'664739.7
2014-Nov-22 06:32N 23°05' E 113°26'0 0.0
2014-Nov-22 05:33N 23°05' E 113°26'0 0.0
2014-Nov-22 04:33N 23°05' E 113°26'6581662.2
2014-Nov-22 04:10N 31°60' E 120°39'6581079.1
2014-Nov-22 03:33N 23°05' E 113°26'65826910.1
2014-Nov-22 03:32N 32°03' E 120°34'327751.4
2014-Nov-22 03:31N 32°05' E 119°56'641663.0
2014-Nov-22 02:33N 23°05' E 113°26'65343534.7
2014-Nov-22 02:33N 32°02' E 120°25'22276.4
2014-Nov-22 02:28N 32°01' E 119°58'43127.4
2014-Nov-22 02:07N 32°00' E 120°49'6641171.6
2014-Nov-22 01:33N 23°05' E 113°26'63914105.4
2014-Nov-22 01:31N 31°58' E 120°03'639669.1
2014-Nov-22 00:33N 23°05' E 113°26'66427472.7
2014-Nov-22 00:32N 32°00' E 120°49'35570.1
2014-Nov-22 00:28N 31°57' E 120°08'640700.1
2014-Nov-21 23:33N 23°05' E 113°26'656295041.2
2014-Nov-21 23:33N 31°22' E 121°28'722499.1
2014-Nov-21 23:32N 31°56' E 120°13'642651.5
2014-Nov-21 22:32N 23°05' E 113°26'64772738.2
2014-Nov-21 22:32N 31°58' E 120°18'647663.3
2014-Nov-21 21:33N 23°05' E 113°26'65275694.1
2014-Nov-21 21:33N 32°02' E 120°24'2286.9
2014-Nov-21 21:18N 32°00' E 120°49'1722.7
2014-Nov-21 20:33N 32°05' E 120°30'657788694.7
2014-Nov-21 20:33N 23°05' E 113°26'6643375.9
2014-Nov-21 20:21N 32°00' E 120°49'1113.8
2014-Nov-21 19:33N 32°01' E 120°36'658591835.5
2014-Nov-21 19:33N 23°05' E 113°26'6647563.6
2014-Nov-21 19:28N 32°00' E 120°49'664727.8
2014-Nov-21 18:33N 23°05' E 113°26'0 0.0
2014-Nov-21 17:33N 23°05' E 113°26'6639283.5
2014-Nov-21 17:29N 31°57' E 120°52'663718.2
2014-Nov-21 16:33N 23°05' E 113°26'6585537.0
2014-Nov-21 16:26N 31°49' E 120°55'658733.3
2014-Nov-21 15:32N 23°05' E 113°26'660103276.3
2014-Nov-21 15:32N 31°46' E 121°02'660675.6
2014-Nov-21 14:33N 23°05' E 113°26'66314379.8
2014-Nov-21 14:31N 32°02' E 120°45'29298.1
2014-Nov-21 14:25N 31°42' E 121°09'2695.1
2014-Nov-21 14:09N 31°21' E 121°27'2237.0
2014-Nov-21 13:33N 31°40' E 121°13'66191558.4
2014-Nov-21 13:32N 23°05' E 113°26'66221280.6
2014-Nov-21 13:31N 32°02' E 120°42'57227.0
2014-Nov-21 13:16N 31°23' E 121°30'658930.2
2014-Nov-21 12:33N 23°05' E 113°26'66299260.9
2014-Nov-21 12:33N 32°03' E 120°41'36129543.6
2014-Nov-21 12:33N 31°40' E 121°13'661669.6
2014-Nov-21 11:33N 23°05' E 113°26'66148582.0
2014-Nov-21 11:33N 31°40' E 121°13'0 0.0
2014-Nov-21 10:33N 31°40' E 121°13'661216410.8
2014-Nov-21 10:33N 23°05' E 113°26'661661.6
2014-Nov-21 09:33N 31°40' E 121°13'66128680.9
2014-Nov-21 09:32N 23°05' E 113°26'0 0.0
2014-Nov-21 08:33N 23°05' E 113°26'661340074.1
2014-Nov-21 08:33N 31°40' E 121°13'661665.9
2014-Nov-21 07:34N 23°05' E 113°26'661198258.0
2014-Nov-21 07:33N 31°38' E 121°16'44120.9
2014-Nov-21 07:11N 32°01' E 120°31'0 0.0
2014-Nov-21 06:34N 32°01' E 120°31'655138764.7
2014-Nov-21 06:33N 23°05' E 113°26'660339324.6
2014-Nov-21 06:33N 31°33' E 121°20'19105.5
2014-Nov-21 06:22N 31°47' E 121°06'3239.5
2014-Nov-21 05:33N 32°01' E 120°31'65546254.9
2014-Nov-21 05:33N 23°05' E 113°26'661264258.5
2014-Nov-21 05:32N 31°29' E 121°27'26265.1
2014-Nov-21 05:27N 31°47' E 121°06'3235.8
2014-Nov-21 04:33N 31°23' E 121°31'659395334.3
2014-Nov-21 04:33N 23°05' E 113°26'661113300.8
2014-Nov-21 04:33N 31°43' E 121°08'361557.5
2014-Nov-21 04:32N 32°01' E 120°31'0 0.1
2014-Nov-21 03:33N 32°01' E 120°32'65519178.4
2014-Nov-21 03:31N 23°05' E 113°26'65759147.9
2014-Nov-21 03:31N 31°22' E 121°30'207298.0
2014-Nov-21 03:30N 31°38' E 121°15'38324.5
2014-Nov-21 03:23N 32°06' E 120°46'0 0.0
2014-Nov-21 02:33N 32°06' E 120°46'142891.2
2014-Nov-21 02:33N 32°01' E 120°32'65594361.2
2014-Nov-21 02:33N 23°05' E 113°26'661339701.9
2014-Nov-21 02:32N 31°33' E 121°21'131462.3
2014-Nov-21 02:32N 31°22' E 121°30'657660.9
2014-Nov-21 01:32N 23°05' E 113°26'65784496.4
2014-Nov-21 01:32N 31°22' E 121°30'581380.0
2014-Nov-21 01:29N 32°06' E 120°46'53306.8
2014-Nov-21 01:19N 31°28' E 121°28'661867.6
2014-Nov-21 00:33N 23°05' E 113°26'65931231.3
2014-Nov-21 00:32N 31°24' E 121°31'253.2
2014-Nov-21 00:29N 31°22' E 121°30'5761.3
2014-Nov-20 23:34N 32°05' E 120°45'665133095.8
2014-Nov-20 23:33N 23°05' E 113°26'65720395.8
2014-Nov-20 23:31N 31°22' E 121°30'253.6
2014-Nov-20 23:29N 31°24' E 121°31'72389.1
2014-Nov-20 23:18N 31°57' E 120°16'7297.0
2014-Nov-20 22:34N 31°24' E 121°31'28025.6
2014-Nov-20 22:33N 31°22' E 121°30'65767597.6
2014-Nov-20 22:33N 23°05' E 113°26'657662.0
2014-Nov-20 21:33N 31°22' E 121°30'27796.3
2014-Nov-20 21:33N 31°24' E 121°31'659395611.5
2014-Nov-20 21:33N 23°05' E 113°26'619215632.3
2014-Nov-20 21:09N 49°18' W 122°53'53978990.2
2014-Nov-20 20:33N 31°22' E 121°30'657197174.1
2014-Nov-20 20:33N 23°05' E 113°26'659113025.8
2014-Nov-20 20:33N 31°24' E 121°31'5390352804.7
2014-Nov-20 20:32N 49°18' W 122°58'539111382.4
2014-Nov-20 20:04N 31°40' E 121°12'6601279.0
2014-Nov-20 19:33N 23°05' E 113°26'65957873.5
2014-Nov-20 19:32N 31°24' E 121°31'5390843695.1
2014-Nov-20 19:32N 49°18' W 122°58'53922156998.0
2014-Nov-20 19:31N 31°22' E 121°30'27463.0
2014-Nov-20 19:28N 31°42' E 121°09'2729.3
2014-Nov-20 18:33N 31°22' E 121°30'657788696.3
2014-Nov-20 18:33N 23°05' E 113°26'657338142.0
2014-Nov-20 18:33N 31°19' E 121°34'35408.9
2014-Nov-20 18:28N 31°45' E 121°05'38114.7
2014-Nov-20 18:08N 32°03' E 120°25'5 8.1
2014-Nov-20 17:33N 32°04' E 120°30'6634106.1
2014-Nov-20 17:33N 31°22' E 121°30'0 0.0
2014-Nov-20 16:31N 31°22' E 121°30'571204.8
2014-Nov-20 16:28N 32°00' E 120°40'5761.4
2014-Nov-20 15:33N 31°22' E 121°30'0 0.0
2014-Nov-20 14:33N 31°22' E 121°30'657655.2
2014-Nov-20 13:33N 23°05' E 113°26'65718199.0
2014-Nov-20 13:31N 31°22' E 121°30'0 0.0
2014-Nov-20 12:33N 31°22' E 121°30'65718926.9
2014-Nov-20 12:31N 23°05' E 113°26'0 0.0
2014-Nov-20 11:30N 23°05' E 113°26'65752574.8
2014-Nov-20 11:29N 31°22' E 121°30'657707.1
2014-Nov-20 10:33N 23°05' E 113°26'65727833.7
2014-Nov-20 10:32N 31°22' E 121°30'56209.3
2014-Nov-20 10:16N 32°02' E 120°45'663930.6
2014-Nov-20 09:33N 23°05' E 113°26'65760662.8
2014-Nov-20 09:33N 31°22' E 121°30'56279.0
2014-Nov-20 09:21N 32°02' E 120°45'5670.1
2014-Nov-20 08:33N 31°22' E 121°30'657295731.3
2014-Nov-20 08:33N 23°05' E 113°26'0 0.0
2014-Nov-20 07:33N 23°05' E 113°26'65725717.1
2014-Nov-20 07:31N 31°22' E 121°30'5860.4
2014-Nov-20 06:33N 32°03' E 120°41'662264729.9
2014-Nov-20 06:33N 23°05' E 113°26'65717016.0
2014-Nov-20 06:31N 31°21' E 121°30'65147.6
2014-Nov-20 06:05N 32°01' E 120°31'65124.0
2014-Nov-20 05:33N 31°21' E 121°30'65767577.7
2014-Nov-20 05:33N 23°05' E 113°26'0 0.0
2014-Nov-20 04:32N 23°05' E 113°26'657112629.5
2014-Nov-20 04:32N 31°21' E 121°30'657668.5
2014-Nov-20 03:33N 23°05' E 113°26'65771673.3
2014-Nov-20 03:33N 31°21' E 121°30'657663.1
2014-Nov-20 02:33N 23°05' E 113°26'657107510.8
2014-Nov-20 02:33N 31°21' E 121°30'654886.3
2014-Nov-20 02:32N 32°02' E 120°30'655672.1
2014-Nov-20 01:33N 23°05' E 113°26'65145977.5
2014-Nov-20 01:33N 32°01' E 120°24'697483.0
2014-Nov-20 01:32N 31°21' E 121°30'527.3
2014-Nov-20 01:21N 31°17' E 121°34'656835.1
2014-Nov-20 00:33N 23°05' E 113°26'657337891.0
2014-Nov-20 00:33N 31°21' E 121°30'13510.0
2014-Nov-20 00:33N 31°21' E 121°31'657658.7
2014-Nov-19 23:33N 23°05' E 113°26'65714078.8
2014-Nov-19 23:31N 31°21' E 121°30'4150.5
2014-Nov-19 23:29N 31°25' E 121°30'660710.8
2014-Nov-19 22:33N 23°05' E 113°26'657295654.6
2014-Nov-19 22:33N 31°21' E 121°30'8617.1
2014-Nov-19 22:33N 31°28' E 121°26'660669.7
2014-Nov-19 21:33N 23°05' E 113°26'65753755.4
2014-Nov-19 21:33N 31°21' E 121°30'132264.9
2014-Nov-19 21:32N 31°32' E 121°21'659671.2
2014-Nov-19 20:33N 23°05' E 113°26'66051654.1
2014-Nov-19 20:33N 31°36' E 121°17'192168.5
2014-Nov-19 20:32N 31°21' E 121°30'53202.3
2014-Nov-19 20:16N 32°01' E 120°49'664928.8
2014-Nov-19 19:33N 23°05' E 113°26'664341318.3
2014-Nov-19 19:33N 31°60' E 120°50'522483.6
2014-Nov-19 19:32N 31°21' E 121°30'25790.5
2014-Nov-19 19:30N 31°40' E 121°12'2122.4
2014-Nov-19 18:33N 31°54' E 120°53'4623491.4
2014-Nov-19 18:33N 31°21' E 121°30'294220.0
2014-Nov-19 18:33N 31°43' E 121°07'660475287.5
2014-Nov-19 18:33N 23°05' E 113°26'662669.9
2014-Nov-19 17:33N 31°47' E 121°06'6622384108.6
2014-Nov-19 17:33N 23°05' E 113°26'657295652.6
2014-Nov-19 17:33N 31°21' E 121°30'39360.9
2014-Nov-19 17:27N 31°47' E 120°57'658738.4
2014-Nov-19 16:33N 23°05' E 113°26'662476794.4
2014-Nov-19 16:33N 31°47' E 121°06'334334.3
2014-Nov-19 16:33N 31°22' E 121°30'322027.7
2014-Nov-19 16:32N 31°45' E 121°05'3232.6
2014-Nov-19 15:33N 31°24' E 121°33'661198341.0
2014-Nov-19 15:33N 23°05' E 113°26'66272241.1
2014-Nov-19 15:33N 31°47' E 121°06'9273.9
2014-Nov-19 15:31N 31°40' E 121°13'4644273.5
2014-Nov-19 15:24N 38°55' E 117°57'472557.8
2014-Nov-19 14:33N 31°34' E 121°19'6602376313.7
2014-Nov-19 14:33N 23°05' E 113°26'661125268.8
2014-Nov-19 14:33N 31°24' E 121°33'4842621.2
2014-Nov-19 14:22N 38°55' E 117°57'484599.0
2014-Nov-19 13:33N 31°24' E 121°33'66129750.0
2014-Nov-19 13:32N 23°05' E 113°26'6603720.6
2014-Nov-19 13:21N 31°27' E 121°29'7 8.9
2014-Nov-19 12:33N 31°23' E 121°36'661238129.1
2014-Nov-19 12:33N 23°05' E 113°26'66156666.6
2014-Nov-19 12:32N 31°24' E 121°33'1110.8
2014-Nov-19 11:33N 31°18' E 121°43'66359627.3
2014-Nov-19 11:33N 23°05' E 113°26'661140008.2
2014-Nov-19 11:32N 31°24' E 121°33'0 0.0
2014-Nov-19 10:33N 31°24' E 121°33'187334.2
2014-Nov-19 10:33N 31°12' E 121°50'66285107.5
2014-Nov-19 10:33N 23°05' E 113°26'6641908.1
2014-Nov-19 10:12N 32°01' E 120°47'5483.5
2014-Nov-19 09:33N 31°24' E 121°33'2522412.4
2014-Nov-19 09:33N 31°08' E 121°56'663298199.0
2014-Nov-19 09:33N 23°05' E 113°26'0 0.0
2014-Nov-19 08:34N 23°05' E 113°26'664119449.1
2014-Nov-19 08:33N 32°01' E 120°47'543331.1
2014-Nov-19 08:32N 31°24' E 121°33'315290.9
2014-Nov-19 08:32N 31°05' E 122°01'3131.7
2014-Nov-19 07:33N 31°24' E 121°33'66179335.9
2014-Nov-19 07:33N 23°05' E 113°26'66519946.6
2014-Nov-19 07:31N 31°01' E 122°07'90296.3
2014-Nov-19 07:13N 32°01' E 120°47'5482.0
2014-Nov-19 06:33N 31°24' E 121°33'661594478.2
2014-Nov-19 06:33N 23°06' E 113°26'6822204667.5
2014-Nov-19 06:31N 33°37' W 117°55'608714435.5
2014-Nov-19 06:06N 30°55' E 122°10'6621213.8
2014-Nov-19 05:33N 23°06' E 113°26'660791840.9
2014-Nov-19 05:33N 31°25' E 121°32'462212.5
2014-Nov-19 05:32N 30°51' E 122°09'6090509864.4
2014-Nov-19 05:31N 33°37' W 117°55'614151652.3
2014-Nov-19 05:24N 31°60' E 120°20'5 6.0
2014-Nov-19 04:33N 32°02' E 120°26'653293917.5
2014-Nov-19 04:33N 23°05' E 113°26'66031668.6
2014-Nov-19 04:32N 31°27' E 121°28'42796.8
2014-Nov-19 04:29N 31°57' E 120°52'943118.9
2014-Nov-19 04:27N 30°45' E 122°02'650725.7
2014-Nov-19 03:33N 23°05' E 113°26'64317412.9
2014-Nov-19 03:31N 30°41' E 121°55'55525.3
2014-Nov-19 03:25N 31°29' E 121°24'659768.9
2014-Nov-19 02:33N 23°05' E 113°26'65943938.1
2014-Nov-19 02:32N 31°31' E 121°21'22566.9
2014-Nov-19 02:30N 31°46' E 121°03'1819.4
2014-Nov-19 01:33N 31°34' E 121°19'65974192.6
2014-Nov-19 01:33N 23°05' E 113°26'66342604.8
2014-Nov-19 01:32N 32°01' E 120°46'3196.6
2014-Nov-19 01:12N 31°40' E 121°13'3148.2
2014-Nov-19 00:34N 32°01' E 120°46'361966.3
2014-Nov-19 00:32N 31°37' E 121°16'660237705.0
2014-Nov-19 00:32N 23°05' E 113°26'663676.4
2014-Nov-18 23:33N 32°01' E 120°46'309916.1
2014-Nov-18 23:33N 31°40' E 121°11'660792527.2
2014-Nov-18 23:33N 23°05' E 113°26'0 0.0
2014-Nov-18 22:33N 23°05' E 113°26'6631192891.5
2014-Nov-18 22:33N 32°01' E 120°46'242700.2
2014-Nov-18 22:32N 31°44' E 121°06'111465.3
2014-Nov-18 22:18N 30°02' E 121°57'6 8.0
2014-Nov-18 21:33N 29°57' E 122°00'618222338.5
2014-Nov-18 21:33N 23°05' E 113°26'658592487.4
2014-Nov-18 21:33N 31°47' E 120°59'18527.8
2014-Nov-18 21:31N 32°01' E 120°46'0 0.1
2014-Nov-18 20:33N 32°01' E 120°46'139018.0
2014-Nov-18 20:33N 31°51' E 120°54'659395279.4
2014-Nov-18 20:33N 23°05' E 113°26'62130630.8
2014-Nov-18 20:32N 29°54' E 122°08'10642236.1
2014-Nov-18 20:32N 31°31' E 121°19'3435.3
2014-Nov-18 19:33N 31°57' E 120°52'3574.5
2014-Nov-18 19:33N 31°59' E 120°50'664170676.1
2014-Nov-18 19:33N 23°05' E 113°26'65829257.1
2014-Nov-18 19:32N 31°31' E 121°19'1104418.1
2014-Nov-18 19:30N 29°48' E 122°05'1671426.7
2014-Nov-18 19:23N 31°58' E 120°03'639769.8
2014-Nov-18 18:33N 23°05' E 113°26'658131656.8
2014-Nov-18 18:33N 31°31' E 121°19'407177.2
2014-Nov-18 18:33N 32°00' E 120°47'1511954.4
2014-Nov-18 18:28N 29°43' E 122°02'16532920.0
2014-Nov-18 18:28N 31°57' E 120°10'2729.8
2014-Nov-18 17:33N 32°00' E 120°42'660103274.9
2014-Nov-18 17:33N 23°05' E 113°26'646258265.4
2014-Nov-18 17:33N 31°58' E 120°18'591858.5
2014-Nov-18 17:31N 31°31' E 121°19'4648.3
2014-Nov-18 16:33N 32°00' E 120°37'657157741.0
2014-Nov-18 16:33N 23°05' E 113°26'65831181.7
2014-Nov-18 16:32N 31°31' E 121°19'0 0.1
2014-Nov-18 15:33N 31°31' E 121°19'5030214.9
2014-Nov-18 15:33N 32°03' E 120°33'658473612.2
2014-Nov-18 15:33N 23°05' E 113°26'66111386.2
2014-Nov-18 15:30N 31°45' E 121°06'3840.1
2014-Nov-18 14:33N 32°04' E 120°27'6 5.7
2014-Nov-18 13:33N 31°60' E 120°22'567520.1
2014-Nov-18 13:33N 31°31' E 121°19'37143.3
2014-Nov-18 13:17N 31°59' E 120°50'66428110.7
2014-Nov-18 13:16N 23°05' E 113°26'644910.7
2014-Nov-18 12:33N 31°57' E 120°16'644122031.3
2014-Nov-18 12:33N 23°05' E 113°26'6581681.9
2014-Nov-18 12:10N 31°31' E 121°19'6581092.1
2014-Nov-18 11:34N 23°05' E 113°26'64067767.0
2014-Nov-18 11:33N 31°56' E 120°09'653760.3
2014-Nov-18 11:32N 31°31' E 121°19'2870.8
2014-Nov-18 11:08N 31°50' E 120°55'4678.2
2014-Nov-18 10:33N 31°58' E 120°02'7185622.4
2014-Nov-18 10:33N 31°31' E 121°19'263544.6
2014-Nov-18 10:33N 31°48' E 120°56'65828883.5
2014-Nov-18 10:31N 23°05' E 113°26'6571754.5
2014-Nov-18 10:09N 31°22' E 121°30'6571088.2
2014-Nov-18 09:32N 23°05' E 113°26'63920922.6
2014-Nov-18 09:31N 32°03' E 119°56'875725.3
2014-Nov-18 09:30N 31°21' E 121°26'334285.2
2014-Nov-18 09:29N 31°47' E 121°02'21125.5
2014-Nov-18 09:19N 31°31' E 121°19'38187.4
2014-Nov-18 09:07N 31°59' E 120°49'6621151.6
2014-Nov-18 08:32N 23°06' E 113°27'65726590.6
2014-Nov-18 08:31N 31°31' E 121°19'17676.5
2014-Nov-18 08:29N 31°45' E 121°06'4 4.5
2014-Nov-18 07:33N 31°42' E 121°09'660148393.3
2014-Nov-18 07:33N 23°06' E 113°27'65840131.3
2014-Nov-18 07:32N 31°60' E 120°40'938.0
2014-Nov-18 07:17N 31°59' E 120°51'663895.0
2014-Nov-18 06:33N 23°06' E 113°27'65645448.4
2014-Nov-18 06:32N 32°01' E 120°35'481575.7
2014-Nov-18 06:30N 31°31' E 121°19'4691254.4
2014-Nov-18 06:08N 38°49' E 117°52'469815.8
2014-Nov-18 05:33N 31°31' E 121°19'519650.9
2014-Nov-18 05:33N 32°03' E 120°33'65749267.7
2014-Nov-18 05:32N 23°06' E 113°27'656670.1
2014-Nov-18 04:34N 32°04' E 120°29'656112535.6
2014-Nov-18 04:33N 23°06' E 113°26'65887709.1
2014-Nov-18 04:33N 31°31' E 121°19'658666.1
2014-Nov-18 03:33N 23°06' E 113°27'65852608.4
2014-Nov-18 03:33N 31°31' E 121°19'5510511.4
2014-Nov-18 03:32N 32°03' E 120°26'5555.9
2014-Nov-18 02:33N 31°31' E 121°19'56202777.0
2014-Nov-18 02:33N 32°01' E 120°23'65412789.5
2014-Nov-18 02:30N 22°58' E 113°32'6649447.5
2014-Nov-18 02:26N 31°44' E 121°08'4450.0
2014-Nov-18 01:33N 31°58' E 120°19'5857.6
2014-Nov-18 00:33N 31°31' E 121°19'621489.8
2014-Nov-18 00:31N 31°56' E 120°13'72167.9
2014-Nov-18 00:05N 31°21' E 121°27'1 2.7
2014-Nov-17 23:33N 31°22' E 121°28'12269.9
2014-Nov-17 23:30N 31°31' E 121°19'0 0.0
2014-Nov-17 22:33N 31°31' E 121°19'0 0.0
2014-Nov-17 21:33N 31°31' E 121°19'48011209.9
2014-Nov-17 21:30N 39°01' E 117°56'4909645.9
2014-Nov-17 21:27N 31°24' E 121°31'1314.3
2014-Nov-17 20:33N 31°31' E 121°19'13524.8
2014-Nov-17 20:32N 31°22' E 121°30'4919118.0
2014-Nov-17 20:29N 39°01' E 117°56'480518.1
2014-Nov-17 19:33N 31°31' E 121°19'0 0.0
2014-Nov-17 18:33N 31°31' E 121°19'0 0.0
2014-Nov-17 17:30N 31°31' E 121°19'0 0.0
2014-Nov-17 16:33N 31°31' E 121°19'0 0.0
2014-Nov-17 15:28N 31°31' E 121°19'0 0.0
2014-Nov-17 14:34N 31°31' E 121°19'12116.7
2014-Nov-17 14:27N 31°24' E 121°30'1213.0
2014-Nov-17 13:33N 31°31' E 121°19'0 0.0
2014-Nov-17 12:33N 31°31' E 121°19'0 0.0
2014-Nov-17 11:31N 31°31' E 121°19'5253.3
2014-Nov-17 10:33N 32°02' E 120°30'522298.2
2014-Nov-17 10:32N 31°31' E 121°19'5656.8
2014-Nov-17 09:33N 31°60' E 120°23'5633399.2
2014-Nov-17 09:33N 31°31' E 121°19'131632.4
2014-Nov-17 09:33N 31°41' E 121°10'0 0.0
2014-Nov-17 08:32N 31°41' E 121°10'13380.9
2014-Nov-17 08:30N 31°31' E 121°19'1312.6
2014-Nov-17 07:30N 31°41' E 121°10'2 0.5
2014-Nov-17 04:30N 31°40' E 121°11'11812.1
2014-Nov-17 04:29N 31°31' E 121°18'1516.0
2014-Nov-17 03:34N 31°43' E 121°07'3 3.0
2014-Nov-17 02:32N 31°45' E 121°04'1321036.8
2014-Nov-17 02:24N 29°38' E 121°46'  

Dump ship's entire track history